Decoded Metar for KCGE (CAMBRIDGE-DORCH in MD, USA) (IATA:CGE) | Meteo·Mobile Aviation Weather
aviador You're here:

KCGE Decoded Metar

CAMBRIDGE-DORCH in MD, USA
Report Time2019-10-20 23:20:00
UTC Time2019-10-20 23:37:29
Flight Rules ifr IFR
Wind010° at 12 Gusting to 21 kt
W.Decomp.*RWY 34: 9.2 kt HW 7.7 kt RCW
Visibility4023 m
Phenomena:Mist
Clouds:N/A
Expected CloudBase > 400 ft AGL from Temp-Dew spread
CeilingNone
Temp15°C (ISA 0)
Dew Point14°C (94% RH)
AAT12.0°C
QNH1009 hPa
Density Alt374 ft
Elevation20 ft
Report Wrong Elevation
Raw Report
KCGE 202320Z AUTO 01012G21KT 2 1/2SM BR 15/14 A2980 RMK A01=

Extra information for KCGE:More info

Metar Taf Metar & Taf Last 4 Metars F.Rules Stats Wind Profile Meteogram Temp Stats Airport Information Weather charts Add Link Nearby VenuesMetar ALERT Operation Metar Decoded Social comments

AIRNAV info for KCGE